Triumph — WDC9555 — position and weather

sailwx.info

Track history (hours):
 
Tides and Currents Weather Stations Pressure Air Temp Water Temp Dewpoint Dewpoint Depression Visibility Wind Speed Wind Dir Waves Ship Positions

Triumph

More information available from US FCC via Universal Licensing System and Coast Guard Vessel Documentation Center.

Last reported at 2014-Sep-01 00:25 UTC. Time now 2014-Sep-02 04:19 UTC.
Position N 47°39' W 122°22'.

Length 24 m; draft 4 m.

Type: Tow > 200 m length. MMSI: 367103880.

Date/timePositionNaut miles runAvg speedWind from/ knotsBaromVisibWave heightAir tempDewpointWater temp
2014-Sep-01 00:25N 47°39' W 122°22'2 2.7
2014-Aug-31 23:33N 47°41' W 122°25'5 5.0
2014-Aug-31 22:33N 47°36' W 122°22'6 6.3
2014-Aug-31 21:33N 47°41' W 122°28'8 8.0
2014-Aug-31 20:33N 47°49' W 122°28'8 7.6
2014-Aug-31 19:34N 47°56' W 122°32'7 6.9
2014-Aug-31 18:33N 48°01' W 122°38'7 6.9
2014-Aug-31 17:31N 48°08' W 122°43'17 7.7
2014-Aug-31 15:19N 48°25' W 122°45'6 7.6
2014-Aug-31 14:33N 48°31' W 122°45'7 7.3
2014-Aug-31 13:33N 48°38' W 122°44'7 7.5
2014-Aug-31 12:33N 48°45' W 122°48'9 8.7
2014-Aug-31 11:33N 48°50' W 122°59'9 9.0
2014-Aug-31 10:33N 48°55' W 123°10'9 9.0
2014-Aug-31 09:33N 49°01' W 123°20'9 8.9
2014-Aug-31 08:33N 49°08' W 123°29'9 8.8
2014-Aug-31 07:32N 49°14' W 123°39'9 9.3
2014-Aug-31 06:31N 49°19' W 123°51'9 9.1
2014-Aug-31 05:33N 49°25' W 124°02'11 8.8
2014-Aug-31 04:14N 49°32' W 124°15'15 8.7
2014-Aug-31 02:32N 49°40' W 124°35'18 9.0
2014-Aug-31 00:31N 49°51' W 124°57'68 5.2
2014-Aug-30 11:32N 50°30' W 126°24'9 8.3
2014-Aug-30 10:29N 50°31' W 126°38'11 8.2
2014-Aug-30 09:07N 50°39' W 126°50'6 9.1
2014-Aug-30 08:30N 50°42' W 126°57'8 8.2
2014-Aug-30 07:32N 50°46' W 127°09'8 8.4
2014-Aug-30 06:33N 50°51' W 127°18'7 7.2
2014-Aug-30 05:33N 50°56' W 127°27'7 7.2
2014-Aug-30 04:33N 51°00' W 127°36'7 6.9
2014-Aug-30 03:33N 51°05' W 127°44'22 7.1
2014-Aug-30 00:30N 51°26' W 127°51'8 8.2
2014-Aug-29 23:33N 51°34' W 127°53'27 7.9
2014-Aug-29 20:04N 52°01' W 127°56'11 6.2
2014-Aug-29 18:20N 52°09' W 128°08'5 5.8
2014-Aug-29 17:31N 52°13' W 128°10'  
2014-Aug-25 05:31N 52°13' W 128°10'13 6.4
2014-Aug-25 03:33N 52°04' W 127°56'32 7.7
2014-Aug-24 23:21N 51°32' W 127°52'7 8.1
2014-Aug-24 22:28N 51°25' W 127°51'7 7.3
2014-Aug-24 21:27N 51°17' W 127°53'6 7.2
2014-Aug-24 20:33N 51°11' W 127°51'7 6.7
2014-Aug-24 19:33N 51°05' W 127°46'27 7.9
2014-Aug-24 16:08N 50°48' W 127°12'16 8.7
2014-Aug-24 14:19N 50°40' W 126°51'9 9.9
2014-Aug-24 13:26N 50°34' W 126°41'8 8.6
2014-Aug-24 12:33N 50°31' W 126°31'10 8.6
2014-Aug-24 11:25N 50°30' W 126°15'220 6.9
2014-Aug-23 03:33N 47°49' W 122°27'9 8.7
2014-Aug-23 02:33N 47°40' W 122°27'6 6.2
2014-Aug-23 01:33N 47°35' W 122°22'2 2.2
2014-Aug-23 00:31N 47°33' W 122°20'0 0.0
2014-Aug-22 23:11N 47°33' W 122°20'0 0.7
2014-Aug-22 22:33N 47°33' W 122°21'7 7.4
2014-Aug-22 21:33N 47°40' W 122°25'  
Track history (hours):
 
Tides and Currents Weather Stations Pressure Air Temp Water Temp Dewpoint Dewpoint Depression Visibility Wind Speed Wind Dir Waves Ship Positions

Triumph

More information available from US FCC via Universal Licensing System and Coast Guard Vessel Documentation Center.

Last reported at 2014-Sep-01 00:25 UTC. Time now 2014-Sep-02 04:19 UTC.
Position N 47°39' W 122°22'.

Length 24 m; draft 4 m.

Type: Tow > 200 m length. MMSI: 367103880.

Date/timePositionNaut miles runAvg speedWind from/ knotsBaromVisibWave heightAir tempDewpointWater temp
2014-Sep-01 00:25N 47°39' W 122°22'2 2.7
2014-Aug-31 23:33N 47°41' W 122°25'5 5.0
2014-Aug-31 22:33N 47°36' W 122°22'6 6.3
2014-Aug-31 21:33N 47°41' W 122°28'8 8.0
2014-Aug-31 20:33N 47°49' W 122°28'8 7.6
2014-Aug-31 19:34N 47°56' W 122°32'7 6.9
2014-Aug-31 18:33N 48°01' W 122°38'7 6.9
2014-Aug-31 17:31N 48°08' W 122°43'17 7.7
2014-Aug-31 15:19N 48°25' W 122°45'6 7.6
2014-Aug-31 14:33N 48°31' W 122°45'7 7.3
2014-Aug-31 13:33N 48°38' W 122°44'7 7.5
2014-Aug-31 12:33N 48°45' W 122°48'9 8.7
2014-Aug-31 11:33N 48°50' W 122°59'9 9.0
2014-Aug-31 10:33N 48°55' W 123°10'9 9.0
2014-Aug-31 09:33N 49°01' W 123°20'9 8.9
2014-Aug-31 08:33N 49°08' W 123°29'9 8.8
2014-Aug-31 07:32N 49°14' W 123°39'9 9.3
2014-Aug-31 06:31N 49°19' W 123°51'9 9.1
2014-Aug-31 05:33N 49°25' W 124°02'11 8.8
2014-Aug-31 04:14N 49°32' W 124°15'15 8.7
2014-Aug-31 02:32N 49°40' W 124°35'18 9.0
2014-Aug-31 00:31N 49°51' W 124°57'68 5.2
2014-Aug-30 11:32N 50°30' W 126°24'9 8.3
2014-Aug-30 10:29N 50°31' W 126°38'11 8.2
2014-Aug-30 09:07N 50°39' W 126°50'6 9.1
2014-Aug-30 08:30N 50°42' W 126°57'8 8.2
2014-Aug-30 07:32N 50°46' W 127°09'8 8.4
2014-Aug-30 06:33N 50°51' W 127°18'7 7.2
2014-Aug-30 05:33N 50°56' W 127°27'7 7.2
2014-Aug-30 04:33N 51°00' W 127°36'7 6.9
2014-Aug-30 03:33N 51°05' W 127°44'22 7.1
2014-Aug-30 00:30N 51°26' W 127°51'8 8.2
2014-Aug-29 23:33N 51°34' W 127°53'27 7.9
2014-Aug-29 20:04N 52°01' W 127°56'11 6.2
2014-Aug-29 18:20N 52°09' W 128°08'5 5.8
2014-Aug-29 17:31N 52°13' W 128°10'  
2014-Aug-25 05:31N 52°13' W 128°10'13 6.4
2014-Aug-25 03:33N 52°04' W 127°56'32 7.7
2014-Aug-24 23:21N 51°32' W 127°52'7 8.1
2014-Aug-24 22:28N 51°25' W 127°51'7 7.3
2014-Aug-24 21:27N 51°17' W 127°53'6 7.2
2014-Aug-24 20:33N 51°11' W 127°51'7 6.7
2014-Aug-24 19:33N 51°05' W 127°46'27 7.9
2014-Aug-24 16:08N 50°48' W 127°12'16 8.7
2014-Aug-24 14:19N 50°40' W 126°51'9 9.9
2014-Aug-24 13:26N 50°34' W 126°41'8 8.6
2014-Aug-24 12:33N 50°31' W 126°31'10 8.6
2014-Aug-24 11:25N 50°30' W 126°15'220 6.9
2014-Aug-23 03:33N 47°49' W 122°27'9 8.7
2014-Aug-23 02:33N 47°40' W 122°27'6 6.2
2014-Aug-23 01:33N 47°35' W 122°22'2 2.2
2014-Aug-23 00:31N 47°33' W 122°20'0 0.0
2014-Aug-22 23:11N 47°33' W 122°20'0 0.7
2014-Aug-22 22:33N 47°33' W 122°21'7 7.4
2014-Aug-22 21:33N 47°40' W 122°25'  

Dump ship's entire track history